Time;durP1;ratioP1;P1;durP2;ratioP2;P2;SDS_P1;SDS_P2;PMS_P1;PMS_P2;Temp;Humidity;BMP_temperature;BMP_pressure;BME280_temperature;BME280_humidity;BME280_pressure;Samples;Min_cycle;Max_cycle;Signal;HPM_P1;HPM_P2
2022/01/26 00:06:45;;;;;;;5.55;3.45;;;;;;;17.83;25.22;98932.25;5171130;27;20033;-63
2022/01/26 00:09:13;;;;;;;3.90;3.25;;;;;;;17.83;25.22;98937.59;5170051;27;20032;-64
2022/01/26 00:11:40;;;;;;;4.18;3.50;;;;;;;17.83;25.30;98932.25;5171017;27;20057;-63
2022/01/26 00:14:10;;;;;;;4.72;4.00;;;;;;;17.81;25.48;98929.72;5171305;27;20025;-63
2022/01/26 00:16:43;;;;;;;6.65;3.75;;;;;;;17.83;25.53;98930.38;5171513;27;20022;-64
2022/01/26 00:19:19;;;;;;;4.63;3.80;;;;;;;17.87;25.34;98930.03;5163304;27;20132;-62
2022/01/26 00:21:51;;;;;;;3.85;3.20;;;;;;;17.86;25.38;98939.91;5169150;27;20025;-62
2022/01/26 00:29:30;;;;;;;5.20;3.60;;;;;;;17.85;25.42;98924.88;5150740;27;20079;-65
2022/01/26 00:40:38;;;;;;;4.47;3.30;;;;;;;17.89;25.22;98919.97;5171071;27;20079;-65
2022/01/26 00:43:08;;;;;;;5.22;3.50;;;;;;;17.90;25.06;98922.44;5170467;27;20295;-66
2022/01/26 00:45:36;;;;;;;4.93;3.88;;;;;;;17.91;25.52;98926.78;5171206;27;20131;-64
2022/01/26 00:48:05;;;;;;;5.13;3.75;;;;;;;17.91;25.11;98931.31;5170716;27;20014;-65
2022/01/26 00:50:33;;;;;;;5.60;3.53;;;;;;;17.89;25.28;98926.13;5170505;27;20184;-67
2022/01/26 00:52:59;;;;;;;6.32;3.35;;;;;;;17.87;25.72;98928.16;5170760;27;20026;-65
2022/01/26 00:55:25;;;;;;;5.47;3.78;;;;;;;17.89;25.67;98934.16;5170494;27;20022;-64
2022/01/26 00:57:50;;;;;;;6.53;4.50;;;;;;;17.90;25.37;98927.81;5170636;27;20015;-65
2022/01/26 01:00:22;;;;;;;5.47;4.15;;;;;;;17.93;25.29;98929.31;5170599;27;20216;-64
2022/01/26 01:02:50;;;;;;;4.53;3.50;;;;;;;17.93;25.44;98924.78;5170503;27;20021;-62
2022/01/26 01:05:22;;;;;;;5.53;3.63;;;;;;;17.93;25.26;98927.44;5170817;27;20030;-64
2022/01/26 01:07:51;;;;;;;5.65;3.33;;;;;;;17.94;25.31;98930.97;5170481;27;20014;-64
2022/01/26 01:10:21;;;;;;;5.05;3.97;;;;;;;17.92;24.86;98920.44;5170465;27;20015;-65
2022/01/26 01:12:48;;;;;;;5.90;3.92;;;;;;;17.91;25.21;98918.75;5170179;27;20099;-66
2022/01/26 01:15:16;;;;;;;4.82;3.70;;;;;;;17.92;25.26;98928.47;5170108;27;20219;-66
2022/01/26 01:17:50;;;;;;;4.20;3.50;;;;;;;17.90;25.40;98922.44;5170300;27;20025;-65
2022/01/26 01:31:10;;;;;;;5.30;4.05;;;;;;;17.96;24.90;98924.41;5169753;27;20017;-67
2022/01/26 01:33:39;;;;;;;5.35;3.70;;;;;;;17.94;24.89;98918.41;5169828;27;20168;-64
2022/01/26 01:36:06;;;;;;;6.07;3.80;;;;;;;17.95;25.11;98928.09;5169811;27;20030;-67
2022/01/26 01:38:34;;;;;;;5.65;4.30;;;;;;;17.96;25.00;98926.22;5170197;27;20446;-64
2022/01/26 01:41:00;;;;;;;5.43;3.97;;;;;;;17.96;25.03;98928.91;5170045;27;20022;-64
2022/01/26 01:43:25;;;;;;;4.72;3.95;;;;;;;17.97;24.99;98926.09;5169787;27;20033;-64
2022/01/26 01:45:53;;;;;;;5.55;4.43;;;;;;;17.99;25.15;98929.44;5169651;27;20135;-64
2022/01/26 01:48:27;;;;;;;4.70;3.65;;;;;;;18.03;25.07;98926.34;5169742;27;20193;-64
2022/01/26 01:50:55;;;;;;;5.38;4.00;;;;;;;18.05;25.13;98930.53;5169722;27;20054;-64
2022/01/26 01:53:30;;;;;;;6.20;4.13;;;;;;;18.07;24.87;98931.19;5169728;27;20011;-64
2022/01/26 01:55:58;;;;;;;5.68;3.97;;;;;;;18.05;24.81;98930.53;5155478;27;20019;-64
2022/01/26 01:58:24;;;;;;;5.15;3.80;;;;;;;18.01;24.90;98926.56;5148797;27;20033;-64
2022/01/26 02:00:49;;;;;;;5.75;4.00;;;;;;;17.96;24.82;98924.41;5148857;27;20042;-64
2022/01/26 02:03:15;;;;;;;5.95;4.00;;;;;;;17.90;25.05;98927.00;5148817;27;20086;-64
2022/01/26 02:05:41;;;;;;;4.95;3.47;;;;;;;17.80;25.25;98927.25;5148839;27;20128;-64
2022/01/26 02:08:06;;;;;;;5.05;4.32;;;;;;;17.74;25.13;98933.31;5148702;27;20018;-64
2022/01/26 02:10:33;;;;;;;5.68;3.83;;;;;;;17.74;25.29;98925.28;5148659;27;20075;-65
2022/01/26 02:13:02;;;;;;;5.80;4.88;;;;;;;17.73;25.11;98929.81;5148651;27;20063;-64
2022/01/26 02:15:43;;;;;;;5.68;4.38;;;;;;;17.73;25.11;98928.97;5148577;28;20023;-65
2022/01/26 02:18:29;;;;;;;5.55;4.22;;;;;;;17.78;24.91;98931.94;5148845;27;20158;-65
2022/01/26 02:21:15;;;;;;;4.78;3.92;;;;;;;17.79;25.10;98934.44;5169277;27;20027;-65
2022/01/26 02:59:24;;;;;;;6.88;4.72;;;;;;;17.77;25.12;98946.34;5133440;27;20031;-65
2022/01/26 03:01:53;;;;;;;6.20;4.38;;;;;;;17.79;25.03;98952.34;5172994;27;20022;-65
2022/01/26 03:09:16;;;;;;;6.40;4.82;;;;;;;17.77;25.25;98939.16;5173069;27;20022;-65
2022/01/26 03:11:44;;;;;;;8.18;4.75;;;;;;;17.73;25.26;98939.69;5172562;27;20050;-65
2022/01/26 03:14:25;;;;;;;5.57;4.40;;;;;;;17.69;25.24;98942.75;5172543;27;20067;-65
2022/01/26 03:16:58;;;;;;;6.20;4.50;;;;;;;17.69;25.15;98933.88;5172689;27;20030;-65
2022/01/26 03:19:34;;;;;;;4.95;4.03;;;;;;;17.73;25.25;98931.66;5172592;27;20015;-65
2022/01/26 03:35:19;;;;;;;6.53;4.63;;;;;;;17.76;25.26;98956.22;5172199;27;20202;-65
2022/01/26 03:37:54;;;;;;;7.22;5.45;;;;;;;17.77;25.26;98944.50;5171884;27;20022;-64
2022/01/26 03:40:28;;;;;;;5.63;4.20;;;;;;;17.79;25.48;98957.69;5151497;27;20086;-64
2022/01/26 03:42:54;;;;;;;7.28;5.28;;;;;;;17.74;25.49;98952.91;5151412;27;20186;-64
2022/01/26 03:45:20;;;;;;;7.30;5.63;;;;;;;17.76;25.31;98952.69;5152395;27;20011;-64
2022/01/26 03:47:45;;;;;;;7.68;5.00;;;;;;;17.72;25.40;98954.91;5172005;27;20003;-65
2022/01/26 03:50:11;;;;;;;6.85;5.03;;;;;;;17.71;25.43;98950.56;5172104;27;20014;-66
2022/01/26 03:52:36;;;;;;;7.15;5.38;;;;;;;17.71;25.77;98955.94;5171961;27;20224;-64
2022/01/26 03:55:03;;;;;;;7.93;5.80;;;;;;;17.69;25.64;98950.78;5171443;27;20038;-64
2022/01/26 03:57:29;;;;;;;8.60;5.50;;;;;;;17.63;25.76;98946.13;5171900;27;20038;-64
2022/01/26 03:59:54;;;;;;;8.07;5.90;;;;;;;17.68;25.61;98953.59;5171796;27;20011;-64
2022/01/26 04:02:20;;;;;;;8.93;6.00;;;;;;;17.67;25.89;98942.09;5171761;27;20014;-65
2022/01/26 04:04:51;;;;;;;6.22;4.82;;;;;;;17.69;25.75;98941.91;5171756;27;20022;-64
2022/01/26 04:07:16;;;;;;;7.97;5.53;;;;;;;17.71;25.65;98947.09;5171724;27;20015;-64
2022/01/26 04:09:42;;;;;;;6.65;4.93;;;;;;;17.71;25.70;98947.91;5171742;27;20091;-64
2022/01/26 04:12:08;;;;;;;8.63;5.82;;;;;;;17.72;25.59;98946.88;5171488;27;20027;-64
2022/01/26 04:14:35;;;;;;;9.05;5.75;;;;;;;17.71;25.59;98950.56;5171478;27;20022;-63
2022/01/26 04:17:01;;;;;;;8.90;5.43;;;;;;;17.72;25.85;98948.75;5171450;27;20246;-66
2022/01/26 04:19:29;;;;;;;7.97;5.25;;;;;;;17.72;25.80;98948.75;5171376;27;20070;-64
2022/01/26 04:22:05;;;;;;;10.23;6.82;;;;;;;17.72;25.67;98949.56;5171443;27;20023;-64
2022/01/26 04:27:02;;;;;;;8.00;5.90;;;;;;;17.69;25.77;98956.13;5171378;27;20052;-64
2022/01/26 04:29:31;;;;;;;9.73;7.18;;;;;;;17.67;25.47;98954.63;5171236;27;20021;-64
2022/01/26 04:31:58;;;;;;;7.50;5.65;;;;;;;17.67;25.87;98955.47;5171242;27;20243;-64
2022/01/26 04:34:25;;;;;;;9.30;5.63;;;;;;;17.67;26.00;98958.13;5171077;27;20033;-64
2022/01/26 04:37:01;;;;;;;8.52;6.40;;;;;;;17.64;25.72;98953.16;5171197;27;20019;-64
2022/01/26 04:39:35;;;;;;;9.27;6.68;;;;;;;17.64;25.73;98950.47;5156464;27;20015;-65
2022/01/26 04:42:10;;;;;;;9.05;6.43;;;;;;;17.62;25.75;98960.53;5150085;27;20022;-63
2022/01/26 04:44:42;;;;;;;8.98;6.05;;;;;;;17.63;25.77;98961.38;5150012;27;20022;-64
2022/01/26 04:47:08;;;;;;;9.38;6.40;;;;;;;17.63;26.22;98961.38;5166822;27;20153;-64
2022/01/26 04:49:34;;;;;;;9.70;6.90;;;;;;;17.62;25.95;98963.19;5170922;27;20022;-64
2022/01/26 04:52:00;;;;;;;9.88;6.60;;;;;;;17.63;25.97;98959.50;5170773;27;20038;-64
2022/01/26 04:54:26;;;;;;;9.88;6.65;;;;;;;17.65;26.12;98968.19;5170526;27;20014;-65
2022/01/26 04:56:51;;;;;;;8.50;6.90;;;;;;;17.68;25.94;98964.31;5170764;27;20046;-66
2022/01/26 04:59:17;;;;;;;8.70;6.72;;;;;;;17.69;25.86;98960.63;5170619;27;20077;-65
2022/01/26 05:01:42;;;;;;;9.32;6.78;;;;;;;17.69;26.05;98964.16;5170616;27;20124;-65
2022/01/26 05:04:08;;;;;;;11.07;6.93;;;;;;;17.69;25.99;98963.31;5170549;27;20235;-65
2022/01/26 05:06:34;;;;;;;10.05;6.82;;;;;;;17.65;25.81;98962.00;5169913;27;20211;-65
2022/01/26 05:08:59;;;;;;;9.15;6.80;;;;;;;17.62;26.06;98952.50;5170414;27;20172;-65
2022/01/26 05:11:34;;;;;;;9.90;6.95;;;;;;;17.66;26.12;98952.94;5170366;27;20283;-66
2022/01/26 05:14:00;;;;;;;12.05;8.27;;;;;;;17.66;25.79;98956.47;5170485;27;20022;-65
2022/01/26 05:16:26;;;;;;;9.85;7.00;;;;;;;17.69;25.83;98958.78;5170358;27;20101;-65
2022/01/26 05:18:53;;;;;;;9.23;6.78;;;;;;;17.69;25.98;98952.59;5170259;27;20025;-65
2022/01/26 05:21:20;;;;;;;10.10;7.18;;;;;;;17.66;25.81;98951.13;5170243;27;20064;-65
2022/01/26 05:23:45;;;;;;;9.13;6.45;;;;;;;17.67;25.95;98955.47;5170121;27;20220;-65
2022/01/26 05:26:12;;;;;;;8.35;6.72;;;;;;;17.64;25.92;98953.16;5170198;27;20078;-65
2022/01/26 05:28:38;;;;;;;9.00;6.45;;;;;;;17.66;26.35;98950.28;5169901;27;20027;-65
2022/01/26 05:31:04;;;;;;;9.52;6.95;;;;;;;17.66;26.20;98952.94;5170060;27;20022;-65
2022/01/26 05:33:31;;;;;;;11.43;7.75;;;;;;;17.64;26.33;98953.16;5170034;27;20169;-65
2022/01/26 05:35:56;;;;;;;10.35;6.55;;;;;;;17.64;26.40;98953.16;5169847;27;20063;-65
2022/01/26 05:38:22;;;;;;;10.48;7.13;;;;;;;17.67;26.39;98960.81;5164470;27;20014;-65
2022/01/26 05:40:49;;;;;;;8.98;6.63;;;;;;;17.67;26.33;98957.28;5149213;27;20015;-65
2022/01/26 05:43:15;;;;;;;9.65;6.60;;;;;;;17.66;26.33;98959.16;5149082;27;20011;-65
2022/01/26 05:45:43;;;;;;;9.82;7.20;;;;;;;17.64;26.33;98950.47;5167049;27;20007;-65
2022/01/26 05:48:12;;;;;;;8.57;6.53;;;;;;;17.61;26.54;98952.69;5169611;27;20018;-65
2022/01/26 05:50:38;;;;;;;10.60;7.50;;;;;;;17.59;26.54;98963.53;5169794;27;20029;-65
2022/01/26 05:53:04;;;;;;;13.00;8.15;;;;;;;17.59;26.47;98958.19;5169712;27;20018;-65
2022/01/26 05:55:30;;;;;;;11.35;7.35;;;;;;;17.61;26.54;98948.16;5169458;27;20034;-65
2022/01/26 05:57:56;;;;;;;12.25;8.07;;;;;;;17.60;26.37;98954.50;5169612;27;20338;-65
2022/01/26 06:00:21;;;;;;;12.50;7.22;;;;;;;17.56;26.23;98957.75;5169927;27;20015;-65
2022/01/26 06:02:47;;;;;;;9.90;7.38;;;;;;;17.56;26.42;98963.09;5169499;27;20015;-66
2022/01/26 06:05:13;;;;;;;12.23;7.63;;;;;;;17.53;26.27;98965.09;5169601;27;20029;-65
2022/01/26 06:07:38;;;;;;;8.63;6.53;;;;;;;17.55;26.33;98962.28;5169498;27;20011;-65
2022/01/26 06:10:05;;;;;;;9.90;6.78;;;;;;;17.59;26.55;98960.88;5169518;27;20021;-65
2022/01/26 06:12:33;;;;;;;11.15;8.00;;;;;;;17.59;26.44;98957.38;5169298;27;20098;-65
2022/01/26 06:15:04;;;;;;;9.98;7.10;;;;;;;17.58;26.12;98958.38;5169332;27;20025;-65
2022/01/26 06:17:29;;;;;;;9.20;6.35;;;;;;;17.59;26.62;98966.22;5170347;27;20059;-65
2022/01/26 06:19:55;;;;;;;11.48;7.85;;;;;;;17.60;26.31;98965.22;5176376;27;20026;-65
2022/01/26 06:22:20;;;;;;;10.15;6.85;;;;;;;17.62;26.43;98957.84;5176342;27;20015;-65
2022/01/26 06:24:46;;;;;;;11.82;7.82;;;;;;;17.67;26.26;98963.50;5176380;27;20014;-65
2022/01/26 06:27:11;;;;;;;9.38;6.32;;;;;;;17.68;26.39;98964.31;5176203;27;20096;-65
2022/01/26 06:29:37;;;;;;;17.05;7.68;;;;;;;17.65;26.50;98954.81;5176179;27;20086;-65
2022/01/26 06:32:03;;;;;;;12.05;8.63;;;;;;;17.67;26.12;98966.16;5176163;27;20025;-65
2022/01/26 06:34:29;;;;;;;11.13;7.93;;;;;;;17.73;26.18;98966.44;5176038;27;20025;-65
2022/01/26 06:36:54;;;;;;;12.60;7.55;;;;;;;17.76;26.15;98960.72;5176136;27;20239;-65
2022/01/26 06:39:20;;;;;;;10.95;7.20;;;;;;;17.78;26.04;98964.06;5162140;27;20022;-64
2022/01/26 06:41:52;;;;;;;12.18;7.93;;;;;;;17.79;26.22;98965.72;5137365;27;20039;-64
2022/01/26 06:44:32;;;;;;;11.13;6.68;;;;;;;17.78;26.44;98958.72;5155272;27;20014;-65
2022/01/26 06:47:17;;;;;;;10.88;7.57;;;;;;;17.76;26.35;98963.41;5170430;27;20082;-65
2022/01/26 06:49:42;;;;;;;11.00;7.88;;;;;;;17.72;26.24;98965.63;5176083;27;20027;-65
2022/01/26 06:52:08;;;;;;;10.68;6.95;;;;;;;17.71;26.46;98969.31;5175961;27;20018;-65
2022/01/26 06:54:33;;;;;;;11.52;7.32;;;;;;;17.73;26.20;98972.63;5175801;27;20018;-65
2022/01/26 06:56:59;;;;;;;9.40;6.63;;;;;;;17.68;26.36;98961.63;5175951;27;20177;-65
2022/01/26 06:59:24;;;;;;;10.70;7.78;;;;;;;17.68;26.48;98981.22;5175961;27;20010;-65
2022/01/26 07:01:51;;;;;;;13.10;8.00;;;;;;;17.68;26.28;98978.53;5175980;27;20188;-65
2022/01/26 07:04:17;;;;;;;10.30;7.20;;;;;;;17.65;26.20;98967.34;5175791;27;20018;-65
2022/01/26 07:06:42;;;;;;;11.27;7.43;;;;;;;17.65;26.38;98970.88;5175840;27;20022;-64
2022/01/26 07:09:08;;;;;;;9.88;6.82;;;;;;;17.68;26.46;98970.50;5175758;27;20058;-65
2022/01/26 07:11:33;;;;;;;9.80;6.78;;;;;;;17.68;26.41;98973.19;5175840;27;20192;-65
2022/01/26 07:14:01;;;;;;;9.82;7.32;;;;;;;17.68;26.40;98973.19;5175771;27;20232;-65
2022/01/26 07:21:55;;;;;;;10.35;7.43;;;;;;;17.64;26.57;98973.72;5175761;27;20041;-65
2022/01/26 07:24:20;;;;;;;12.48;7.20;;;;;;;17.69;26.45;98977.53;5175641;27;20010;-64
2022/01/26 07:26:49;;;;;;;12.40;7.95;;;;;;;17.70;26.57;98970.31;5175751;27;20022;-65
2022/01/26 07:29:21;;;;;;;11.45;7.53;;;;;;;17.73;26.60;98982.50;5174157;27;20018;-65
2022/01/26 07:31:47;;;;;;;10.45;7.40;;;;;;;17.73;26.44;98985.16;5172437;27;20223;-64
2022/01/26 07:34:14;;;;;;;11.82;7.28;;;;;;;17.79;26.49;98985.28;5172121;27;20078;-65
2022/01/26 07:36:46;;;;;;;12.25;8.50;;;;;;;17.80;26.52;98994.16;5171753;27;20239;-65
2022/01/26 07:39:16;;;;;;;10.80;7.43;;;;;;;17.80;26.68;98996.81;5159542;27;20015;-65
2022/01/26 07:41:41;;;;;;;9.60;6.25;;;;;;;17.78;26.52;99004.19;5151404;27;20029;-65
2022/01/26 07:44:07;;;;;;;10.98;7.35;;;;;;;17.78;26.76;98999.69;5151393;27;20015;-64
2022/01/26 07:46:32;;;;;;;9.95;7.32;;;;;;;17.81;26.69;99003.84;5162778;27;20045;-65
2022/01/26 07:48:58;;;;;;;10.38;6.65;;;;;;;17.82;26.57;98995.63;5172104;27;20033;-65
2022/01/26 07:51:24;;;;;;;8.35;6.55;;;;;;;17.84;26.82;98998.94;5172049;27;20139;-65
2022/01/26 07:53:49;;;;;;;10.00;6.47;;;;;;;17.86;26.76;98990.75;5171933;27;20018;-65
2022/01/26 07:56:15;;;;;;;8.98;6.65;;;;;;;17.84;26.72;98993.59;5171850;27;20231;-65
2022/01/26 07:58:42;;;;;;;10.88;7.10;;;;;;;17.83;26.59;99007.16;5171919;27;20021;-65
2022/01/26 08:01:07;;;;;;;10.60;6.97;;;;;;;17.84;26.64;99006.16;5171936;27;20078;-65
2022/01/26 08:03:34;;;;;;;10.38;7.40;;;;;;;17.87;26.53;98996.94;5171757;27;20011;-65
2022/01/26 08:06:04;;;;;;;9.65;7.05;;;;;;;17.88;26.65;98998.59;5171810;27;20007;-65
2022/01/26 08:08:30;;;;;;;9.20;6.63;;;;;;;17.85;26.60;98995.25;5171718;27;20026;-65
2022/01/26 08:10:59;;;;;;;9.60;6.75;;;;;;;17.89;26.35;99005.63;5171614;27;20098;-65
2022/01/26 08:13:25;;;;;;;9.93;6.57;;;;;;;17.91;26.63;99008.94;5171587;27;20018;-65
2022/01/26 08:15:56;;;;;;;7.45;5.90;;;;;;;17.90;26.55;99002.75;5171967;27;20015;-65
2022/01/26 08:18:22;;;;;;;11.18;6.60;;;;;;;17.90;26.45;99001.94;5171522;27;20023;-65
2022/01/26 08:20:48;;;;;;;10.35;6.75;;;;;;;17.90;26.52;99002.75;5171504;27;20227;-65
2022/01/26 08:23:13;;;;;;;12.70;6.53;;;;;;;17.90;26.28;99007.28;5171371;27;20019;-65
2022/01/26 08:25:39;;;;;;;9.10;6.40;;;;;;;17.88;26.64;99004.75;5171352;27;20220;-65
2022/01/26 08:28:14;;;;;;;10.70;7.88;;;;;;;17.88;26.78;99001.28;5171258;27;20015;-65
2022/01/26 08:30:41;;;;;;;11.75;7.63;;;;;;;17.88;26.74;99010.13;5171589;27;20014;-65
2022/01/26 08:33:06;;;;;;;10.95;7.07;;;;;;;17.90;26.47;99017.97;5171142;27;20011;-66
2022/01/26 08:35:33;;;;;;;9.40;6.65;;;;;;;17.91;26.71;99015.13;5170940;27;20161;-65
2022/01/26 08:37:59;;;;;;;9.38;6.90;;;;;;;17.92;26.64;99011.44;5168741;27;20112;-65
2022/01/26 08:40:25;;;;;;;8.88;6.72;;;;;;;17.94;26.56;99008.59;5150348;27;20015;-65
2022/01/26 08:42:51;;;;;;;8.20;6.07;;;;;;;17.93;26.84;99010.41;5149237;27;20060;-65
2022/01/26 08:45:17;;;;;;;9.40;6.03;;;;;;;17.93;26.80;99015.78;5164144;27;20010;-65
2022/01/26 08:47:43;;;;;;;8.15;5.43;;;;;;;17.95;26.70;99020.94;5170877;27;20081;-65
2022/01/26 08:50:09;;;;;;;8.75;5.80;;;;;;;17.98;26.64;99029.47;5170871;27;20100;-65
2022/01/26 08:52:35;;;;;;;7.78;5.28;;;;;;;18.01;26.58;99019.44;5170654;27;20039;-65
2022/01/26 08:55:01;;;;;;;10.27;5.72;;;;;;;18.03;26.81;99033.44;5170567;27;20063;-65
2022/01/26 08:57:26;;;;;;;9.43;6.28;;;;;;;18.04;26.63;99024.38;5170666;27;20034;-65
2022/01/26 08:59:52;;;;;;;10.02;6.38;;;;;;;18.03;26.55;99028.94;5170670;27;20034;-64
2022/01/26 09:02:17;;;;;;;8.68;5.75;;;;;;;18.04;26.80;99035.94;5169802;27;20026;-64
2022/01/26 09:04:43;;;;;;;12.98;7.15;;;;;;;17.99;26.67;99028.47;5170738;27;20074;-65
2022/01/26 09:07:13;;;;;;;12.65;5.82;;;;;;;18.00;26.76;99045.34;5170417;27;20023;-65
2022/01/26 09:09:44;;;;;;;8.00;5.97;;;;;;;18.00;26.64;99040.00;5170509;27;20015;-65
2022/01/26 09:12:19;;;;;;;7.53;5.18;;;;;;;18.01;26.58;99035.50;5170221;27;20090;-65
2022/01/26 09:14:45;;;;;;;8.95;5.38;;;;;;;18.02;26.57;99050.50;5170210;27;20071;-65
2022/01/26 09:17:12;;;;;;;7.97;4.75;;;;;;;18.01;26.77;99041.66;5170167;27;20022;-66
2022/01/26 09:19:41;;;;;;;6.72;5.10;;;;;;;18.03;26.63;99054.84;5159764;27;20112;-65
2022/01/26 09:22:09;;;;;;;7.03;4.93;;;;;;;18.03;26.59;99049.50;5149526;27;20015;-65
2022/01/26 09:24:37;;;;;;;6.80;4.72;;;;;;;18.04;26.63;99051.16;5149318;27;20011;-65
2022/01/26 09:27:04;;;;;;;5.88;4.18;;;;;;;18.04;26.80;99045.81;5149276;27;20023;-65
2022/01/26 09:29:30;;;;;;;6.40;4.97;;;;;;;18.04;26.45;99046.66;5166218;27;20059;-65
2022/01/26 09:31:56;;;;;;;7.13;3.95;;;;;;;18.05;26.66;99048.31;5170048;27;20006;-65
2022/01/26 09:34:26;;;;;;;7.07;4.57;;;;;;;18.04;26.86;99045.81;5169674;27;20023;-64
2022/01/26 09:36:52;;;;;;;6.25;4.30;;;;;;;17.99;26.63;99044.53;5169992;27;20014;-65
2022/01/26 09:39:20;;;;;;;6.65;4.68;;;;;;;17.97;26.65;99041.19;5156230;27;20090;-66
2022/01/26 09:41:47;;;;;;;6.47;4.03;;;;;;;18.00;26.51;99045.34;5149021;27;20014;-66
2022/01/26 09:44:13;;;;;;;5.40;4.10;;;;;;;17.99;26.48;99049.03;5148999;27;20015;-64
2022/01/26 09:46:39;;;;;;;6.15;3.78;;;;;;;18.01;26.60;99052.38;5149094;27;20015;-64
2022/01/26 09:49:06;;;;;;;5.75;3.45;;;;;;;18.07;26.38;99053.47;5148990;27;20030;-66
2022/01/26 09:51:39;;;;;;;6.38;3.83;;;;;;;18.10;26.45;99055.81;5148994;27;20074;-63
2022/01/26 09:54:09;;;;;;;5.95;4.43;;;;;;;18.11;26.45;99062.81;5148386;27;20011;-66
2022/01/26 09:56:35;;;;;;;4.67;3.00;;;;;;;18.11;26.36;99063.63;5168516;27;20014;-66
2022/01/26 09:59:00;;;;;;;5.50;3.53;;;;;;;18.12;26.37;99065.31;5169561;27;20252;-66
2022/01/26 10:01:26;;;;;;;6.30;3.70;;;;;;;18.10;26.60;99061.97;5169548;27;20264;-65
2022/01/26 10:03:52;;;;;;;6.80;3.72;;;;;;;18.09;26.37;99059.50;5169321;27;20023;-65
2022/01/26 10:06:23;;;;;;;4.93;3.42;;;;;;;18.12;26.60;99064.50;5169271;27;20061;-64
2022/01/26 10:19:02;;;;;;;4.18;2.53;;;;;;;18.04;26.48;99053.84;5169172;27;20034;-63
2022/01/26 10:21:28;;;;;;;3.70;2.88;;;;;;;18.06;26.45;99065.19;5169395;27;20054;-66
2022/01/26 10:23:57;;;;;;;4.15;2.80;;;;;;;18.07;26.46;99065.03;5169189;27;20014;-65
2022/01/26 10:26:23;;;;;;;4.57;3.22;;;;;;;18.10;26.27;99055.81;5169360;27;20014;-65
2022/01/26 10:28:53;;;;;;;4.35;3.05;;;;;;;18.15;26.46;99072.16;5169124;27;20014;-63
2022/01/26 10:31:23;;;;;;;3.67;2.55;;;;;;;18.17;26.29;99066.63;5169191;27;20028;-63
2022/01/26 10:34:08;;;;;;;3.30;2.60;;;;;;;18.15;26.26;99053.41;5169077;27;20015;-64
2022/01/26 10:36:37;;;;;;;4.20;2.80;;;;;;;18.12;26.36;99065.31;5169152;27;20235;-63
2022/01/26 10:39:37;;;;;;;3.58;2.45;;;;;;;18.11;26.38;99060.97;5157654;27;20019;-65
2022/01/26 10:42:08;;;;;;;4.13;2.55;;;;;;;18.13;26.47;99056.25;5148445;28;20011;-64
2022/01/26 10:44:43;;;;;;;4.60;2.72;;;;;;;18.18;26.38;99057.56;5148716;28;20018;-65
2022/01/26 10:47:09;;;;;;;4.45;2.97;;;;;;;18.22;26.39;99059.69;5148365;28;20030;-67
2022/01/26 10:49:56;;;;;;;5.53;2.67;;;;;;;18.23;26.36;99057.88;5148300;28;20019;-65
2022/01/26 10:54:51;;;;;;;4.90;2.67;;;;;;;18.23;26.50;99061.38;5149944;27;20004;-68
2022/01/26 10:57:18;;;;;;;5.47;2.53;;;;;;;18.23;26.63;99055.19;5148124;27;20224;-64
2022/01/26 10:59:48;;;;;;;3.90;3.03;;;;;;;18.26;26.76;99060.16;5148322;28;20082;-65
2022/01/26 11:02:23;;;;;;;6.85;2.58;;;;;;;18.24;26.49;99063.03;5148222;27;20019;-65
2022/01/26 11:04:48;;;;;;;4.57;2.92;;;;;;;18.24;26.62;99067.53;5149254;27;20136;-65
2022/01/26 11:07:15;;;;;;;4.18;2.85;;;;;;;18.28;26.48;99064.34;5152068;27;20015;-66
2022/01/26 11:09:45;;;;;;;6.15;2.55;;;;;;;18.31;27.09;99063.13;5167801;27;20095;-66
2022/01/26 11:12:13;;;;;;;3.88;2.67;;;;;;;18.27;27.14;99069.84;5172084;27;20069;-66
2022/01/26 11:14:41;;;;;;;4.47;2.97;;;;;;;18.26;26.29;99071.72;5172323;27;20027;-68
2022/01/26 11:17:09;;;;;;;3.92;2.70;;;;;;;18.31;25.68;99073.84;5170733;27;20101;-65
2022/01/26 11:19:46;;;;;;;3.55;2.83;;;;;;;18.21;25.45;99062.56;5172728;27;20077;-62
2022/01/26 11:22:14;;;;;;;5.95;2.90;;;;;;;18.14;25.32;99070.50;5172373;27;20014;-63
2022/01/26 11:24:45;;;;;;;4.63;3.30;;;;;;;18.12;25.26;99064.50;5172356;27;20011;-64
2022/01/26 11:27:11;;;;;;;4.57;3.47;;;;;;;18.11;25.28;99062.81;5172563;27;20243;-64
2022/01/26 11:29:42;;;;;;;5.35;3.70;;;;;;;18.12;24.95;99067.16;5172435;27;20063;-62
2022/01/26 11:32:33;;;;;;;4.70;3.15;;;;;;;18.14;25.12;99068.63;5172282;27;20042;-64
2022/01/26 11:35:00;;;;;;;;;;;;;;;18.08;25.82;99073.88;5170042;27;20059;-63
2022/01/26 11:37:41;;;;;;;7.45;3.10;;;;;;;18.10;25.40;99074.53;5171534;27;19961;-62
2022/01/26 11:45:20;;;;;;;4.55;2.63;;;;;;;18.07;24.98;99064.19;5172128;27;20108;-62
2022/01/26 11:48:00;;;;;;;4.47;2.78;;;;;;;18.09;25.09;99064.84;5171874;27;20303;-61
2022/01/26 11:50:28;;;;;;;3.65;2.55;;;;;;;18.07;24.99;99074.91;5171965;27;20017;-64
2022/01/26 11:53:06;;;;;;;3.83;2.83;;;;;;;18.09;24.92;99072.88;5171944;27;20139;-64
2022/01/26 11:55:36;;;;;;;5.10;3.15;;;;;;;18.14;24.90;99074.00;5181200;27;20019;-64
2022/01/26 11:58:17;;;;;;;2.95;2.50;;;;;;;18.15;24.89;99070.31;5172199;27;20018;-66
2022/01/26 12:01:28;;;;;;;5.50;3.50;;;;;;;18.15;24.98;99072.97;5173099;27;20007;-62
2022/01/26 12:03:47;;;;;;;3.63;2.63;;;;;;;18.11;24.79;99069.00;5189399;27;20027;-62
2022/01/26 12:06:21;;;;;;;4.05;2.53;;;;;;;18.10;24.66;99075.38;5176091;27;20169;-65
2022/01/26 12:08:48;;;;;;;4.75;2.90;;;;;;;18.08;24.49;99084.59;5171305;27;20149;-63
2022/01/26 12:11:16;;;;;;;4.60;2.63;;;;;;;18.06;24.62;99075.91;5171550;27;20038;-65
2022/01/26 12:13:45;;;;;;;4.93;3.20;;;;;;;18.03;24.44;99078.94;5153415;27;20261;-65
2022/01/26 12:16:21;;;;;;;4.32;3.03;;;;;;;18.02;24.25;99079.94;5171242;27;20011;-64
2022/01/26 12:19:49;;;;;;;4.13;2.58;;;;;;;17.99;24.54;99084.69;5171396;27;20211;-64
2022/01/26 12:38:08;;;;;;;4.03;2.67;;;;;;;17.93;24.67;99088.03;5171266;27;20215;-65
2022/01/26 12:43:36;;;;;;;4.32;3.20;;;;;;;17.93;24.47;99085.34;5171055;27;20022;-65
2022/01/26 12:46:12;;;;;;;5.88;2.70;;;;;;;17.94;24.56;99092.38;5170935;27;20220;-65
2022/01/26 12:48:40;;;;;;;3.03;2.38;;;;;;;17.93;24.51;99087.22;5170821;27;20015;-64
2022/01/26 12:51:07;;;;;;;4.85;2.55;;;;;;;17.95;24.39;99094.03;5170934;27;20030;-64
2022/01/26 12:53:35;;;;;;;3.15;2.00;;;;;;;17.96;24.58;99090.34;5170700;27;20078;-64
2022/01/26 12:56:10;;;;;;;3.72;2.13;;;;;;;18.00;24.41;99093.53;5155735;27;20305;-63
2022/01/26 12:58:38;;;;;;;3.78;2.25;;;;;;;17.99;24.21;99095.38;5149898;27;20140;-63
2022/01/26 13:01:08;;;;;;;3.47;2.50;;;;;;;17.97;24.44;99092.06;5149886;27;20068;-64
2022/01/26 13:03:37;;;;;;;6.03;2.75;;;;;;;17.95;24.38;99094.03;5149836;27;20026;-64
2022/01/26 13:06:23;;;;;;;4.28;2.50;;;;;;;17.97;24.42;99104.56;5149804;27;20031;-64
2022/01/26 13:08:51;;;;;;;5.03;2.40;;;;;;;17.95;24.37;99096.72;5162360;27;20215;-64
2022/01/26 13:11:27;;;;;;;3.33;2.28;;;;;;;17.96;24.84;99095.72;5170236;27;20035;-64
2022/01/26 13:14:03;;;;;;;4.47;2.50;;;;;;;17.97;24.49;99099.22;5170293;27;20046;-64
2022/01/26 13:16:35;;;;;;;3.35;2.00;;;;;;;17.95;24.46;99101.22;5170367;27;20038;-65
2022/01/26 13:24:57;;;;;;;7.13;2.00;;;;;;;17.92;24.60;99102.44;5169926;27;20007;-63
2022/01/26 13:27:37;;;;;;;3.90;2.15;;;;;;;17.90;24.62;99098.28;5169333;27;20014;-63
2022/01/26 13:30:48;;;;;;;3.80;2.00;;;;;;;17.90;24.65;99099.09;5170123;27;20304;-64
2022/01/26 13:34:33;;;;;;;5.10;2.22;;;;;;;17.86;24.81;99095.13;5169968;27;20176;-64
2022/01/26 13:49:28;;;;;;;4.43;1.98;;;;;;;17.82;24.78;99112.56;5169734;27;20215;-65
2022/01/26 13:54:42;;;;;;;3.45;2.10;;;;;;;17.82;24.47;99112.56;5169320;27;20019;-65
2022/01/26 13:57:36;;;;;;;3.58;2.05;;;;;;;17.80;24.59;99114.56;5169626;27;20375;-67
2022/01/26 13:59:57;;;;;;;3.45;1.90;;;;;;;17.79;24.83;99127.09;5169592;27;20007;-65
2022/01/26 14:02:25;;;;;;;2.58;1.70;;;;;;;17.79;24.76;99120.94;5169518;27;20018;-64
2022/01/26 14:04:50;;;;;;;5.88;2.05;;;;;;;17.79;24.28;99126.28;5169588;27;20029;-64
2022/01/26 14:07:17;;;;;;;3.30;1.95;;;;;;;17.77;24.37;99121.13;5169483;27;20211;-65
2022/01/26 14:09:44;;;;;;;2.40;1.45;;;;;;;17.80;24.95;99128.75;5169498;27;20026;-65
2022/01/26 14:12:13;;;;;;;3.75;1.83;;;;;;;17.80;24.88;99118.06;5169117;27;20039;-65